Observation data for Friona on 03/08/2018      Previous  Date  Next       Current Mesonet Observations  Soil Data  Daily Summary Page  Observations in Plain Language
KFAS 080600Z 18009KT 05/M11 A3017 RMK A01 T00481108  RH  031%=      5-min Rain = 0
KFAS 080605Z 18009KT 05/M11 A3017 RMK A01 T00471108  RH  031%=      5-min Rain = 0
KFAS 080610Z 18009KT 05/M11 A3017 RMK A01 T00471105  RH  032%=      5-min Rain = 0
KFAS 080615Z 18009KT 05/M11 A3017 RMK A01 T00491105  RH  032%=      5-min Rain = 0
KFAS 080620Z 18007KT 05/M10 A3017 RMK A01 T00471104  RH  032%=      5-min Rain = 0
KFAS 080625Z 18006KT 04/M11 A3017 RMK A01 T00421105  RH  033%=      5-min Rain = 0
KFAS 080630Z 17005KT 04/M11 A3017 RMK A01 T00371107  RH  034%=      5-min Rain = 0
KFAS 080635Z 16004KT 03/M11 A3017 RMK A01 T00341109  RH  034%=      5-min Rain = 0
KFAS 080640Z 16006KT 03/M11 A3017 RMK A01 T00311108  RH  035%=      5-min Rain = 0
KFAS 080645Z 16006KT 03/M11 A3017 RMK A01 T00301106  RH  036%=      5-min Rain = 0
KFAS 080650Z 17006KT 03/M11 A3017 RMK A01 T00291105  RH  036%=      5-min Rain = 0
KFAS 080655Z 17007KT 03/M11 A3017 RMK A01 T00261105  RH  037%=      5-min Rain = 0
KFAS 080700Z 17007KT 03/M11 A3017 RMK A01 T00251105  RH  038%=      5-min Rain = 0
KFAS 080705Z 17006KT 02/M10 A3016 RMK A01 T00241104  RH  038%=      5-min Rain = 0
KFAS 080710Z 17006KT 03/M10 A3017 RMK A01 T00251104  RH  038%=      5-min Rain = 0
KFAS 080715Z 17007KT 03/M11 A3017 RMK A01 T00271105  RH  037%=      5-min Rain = 0
KFAS 080720Z 17006KT 03/M10 A3016 RMK A01 T00281104  RH  037%=      5-min Rain = 0
KFAS 080725Z 16005KT 03/M10 A3017 RMK A01 T00261104  RH  038%=      5-min Rain = 0
KFAS 080730Z 17005KT 03/M10 A3016 RMK A01 T00251104  RH  038%=      5-min Rain = 0
KFAS 080735Z 17008KT 03/M10 A3017 RMK A01 T00311101  RH  037%=      5-min Rain = 0
KFAS 080740Z 17008KT 04/M10 A3016 RMK A01 T00381103  RH  035%=      5-min Rain = 0
KFAS 080745Z 17009KT 04/M11 A3016 RMK A01 T00421105  RH  033%=      5-min Rain = 0
KFAS 080750Z 17008KT 05/M11 A3016 RMK A01 T00451106  RH  032%=      5-min Rain = 0
KFAS 080755Z 17008KT 04/M11 A3016 RMK A01 T00441106  RH  033%=      5-min Rain = 0
KFAS 080800Z 17008KT 04/M11 A3016 RMK A01 T00411106  RH  033%=      5-min Rain = 0
KFAS 080805Z 18008KT 04/M11 A3016 RMK A01 T00421107  RH  033%=      5-min Rain = 0
KFAS 080810Z 17008KT 04/M11 A3016 RMK A01 T00431106  RH  033%=      5-min Rain = 0
KFAS 080815Z 17007KT 04/M11 A3016 RMK A01 T00411105  RH  034%=      5-min Rain = 0
KFAS 080820Z 17007KT 04/M11 A3016 RMK A01 T00391105  RH  034%=      5-min Rain = 0
KFAS 080825Z 18007KT 04/M11 A3016 RMK A01 T00401106  RH  034%=      5-min Rain = 0
KFAS 080830Z 17007KT 04/M11 A3016 RMK A01 T00391106  RH  034%=      5-min Rain = 0
KFAS 080835Z 17007KT 04/M11 A3016 RMK A01 T00391105  RH  034%=      5-min Rain = 0
KFAS 080840Z 17006KT 04/M11 A3016 RMK A01 T00391105  RH  034%=      5-min Rain = 0
KFAS 080845Z 17006KT 04/M10 A3016 RMK A01 T00371104  RH  035%=      5-min Rain = 0
KFAS 080850Z 17007KT 04/M10 A3016 RMK A01 T00361104  RH  035%=      5-min Rain = 0
KFAS 080855Z 17007KT 04/M10 A3016 RMK A01 T00361103  RH  035%=      5-min Rain = 0
KFAS 080900Z 17007KT 03/M10 A3016 RMK A01 T00331102  RH  036%=      5-min Rain = 0
KFAS 080905Z 18006KT 03/M10 A3016 RMK A01 T00311101  RH  037%=      5-min Rain = 0
KFAS 080910Z 20005KT 03/M10 A3016 RMK A01 T00311099  RH  038%=      5-min Rain = 0
KFAS 080915Z 19004KT 03/M10 A3016 RMK A01 T00251097  RH  040%=      5-min Rain = 0
KFAS 080920Z 18004KT 02/M10 A3016 RMK A01 T00241096  RH  041%=      5-min Rain = 0
KFAS 080925Z 18004KT 03/M09 A3015 RMK A01 T00271093  RH  041%=      5-min Rain = 0
KFAS 080930Z 18004KT 03/M09 A3015 RMK A01 T00291088  RH  042%=      5-min Rain = 0
KFAS 080935Z 18005KT 03/M09 A3015 RMK A01 T00291090  RH  041%=      5-min Rain = 0
KFAS 080940Z 18005KT 03/M09 A3014 RMK A01 T00291091  RH  041%=      5-min Rain = 0
KFAS 080945Z 17006KT 03/M09 A3014 RMK A01 T00301093  RH  040%=      5-min Rain = 0
KFAS 080950Z 17006KT 03/M09 A3014 RMK A01 T00311091  RH  040%=      5-min Rain = 0
KFAS 080955Z 18008KT 04/M09 A3014 RMK A01 T00361090  RH  039%=      5-min Rain = 0
KFAS 081000Z 18009KT 04/M09 A3014 RMK A01 T00441091  RH  037%=      5-min Rain = 0
KFAS 081005Z 18011KT 05/M09 A3014 RMK A01 T00461093  RH  036%=      5-min Rain = 0
KFAS 081010Z 18011KT 05/M09 A3014 RMK A01 T00481092  RH  035%=      5-min Rain = 0
KFAS 081015Z 18010KT 05/M09 A3014 RMK A01 T00481091  RH  036%=      5-min Rain = 0
KFAS 081020Z 18009KT 05/M09 A3014 RMK A01 T00461088  RH  037%=      5-min Rain = 0
KFAS 081025Z 18010KT 05/M09 A3014 RMK A01 T00451087  RH  038%=      5-min Rain = 0
KFAS 081030Z 19009KT 05/M09 A3014 RMK A01 T00451086  RH  038%=      5-min Rain = 0
KFAS 081035Z 18008KT 04/M09 A3014 RMK A01 T00431085  RH  039%=      5-min Rain = 0
KFAS 081040Z 18007KT 04/M09 A3013 RMK A01 T00421086  RH  039%=      5-min Rain = 0
KFAS 081045Z 18008KT 04/M09 A3013 RMK A01 T00411087  RH  039%=      5-min Rain = 0
KFAS 081050Z 18008KT 04/M09 A3013 RMK A01 T00401088  RH  039%=      5-min Rain = 0
KFAS 081055Z 18006KT 04/M09 A3013 RMK A01 T00391087  RH  039%=      5-min Rain = 0
KFAS 081100Z 18004KT 04/M09 A3013 RMK A01 T00371085  RH  040%=      5-min Rain = 0
KFAS 081105Z 17005KT 04/M09 A3013 RMK A01 T00351085  RH  041%=      5-min Rain = 0
KFAS 081110Z 17006KT 03/M09 A3013 RMK A01 T00331087  RH  041%=      5-min Rain = 0
KFAS 081115Z 17006KT 03/M09 A3013 RMK A01 T00311087  RH  042%=      5-min Rain = 0
KFAS 081120Z 16006KT 03/M08 A3012 RMK A01 T00301084  RH  043%=      5-min Rain = 0
KFAS 081125Z 17006KT 03/M08 A3012 RMK A01 T00321083  RH  043%=      5-min Rain = 0
KFAS 081130Z 18009KT 04/M09 A3012 RMK A01 T00381085  RH  040%=      5-min Rain = 0
KFAS 081135Z 19008KT 05/M08 A3013 RMK A01 T00451083  RH  039%=      5-min Rain = 0
KFAS 081140Z 19007KT 05/M08 A3013 RMK A01 T00451084  RH  039%=      5-min Rain = 0
KFAS 081145Z 19006KT 04/M08 A3013 RMK A01 T00441082  RH  039%=      5-min Rain = 0
KFAS 081150Z 19005KT 05/M08 A3013 RMK A01 T00451082  RH  039%=      5-min Rain = 0
KFAS 081155Z 18004KT 05/M08 A3013 RMK A01 T00451082  RH  039%=      5-min Rain = 0
KFAS 081200Z 17004KT 04/M08 A3013 RMK A01 T00431082  RH  040%=      5-min Rain = 0
KFAS 081205Z 18004KT 04/M08 A3013 RMK A01 T00431082  RH  039%=      5-min Rain = 0
KFAS 081210Z 18005KT 05/M08 A3013 RMK A01 T00451082  RH  039%=      5-min Rain = 0
KFAS 081215Z 18006KT 05/M08 A3013 RMK A01 T00471081  RH  039%=      5-min Rain = 0
KFAS 081220Z 19006KT 05/M08 A3013 RMK A01 T00471082  RH  038%=      5-min Rain = 0
KFAS 081225Z 19005KT 05/M08 A3013 RMK A01 T00471082  RH  039%=      5-min Rain = 0
KFAS 081230Z 19006KT 05/M08 A3014 RMK A01 T00451081  RH  039%=      5-min Rain = 0
KFAS 081235Z 19005KT 05/M08 A3014 RMK A01 T00451080  RH  040%=      5-min Rain = 0
KFAS 081240Z 20004KT 04/M08 A3014 RMK A01 T00431082  RH  040%=      5-min Rain = 0
KFAS 081245Z 19003KT 04/M08 A3014 RMK A01 T00421083  RH  040%=      5-min Rain = 0
KFAS 081250Z 19003KT 04/M08 A3014 RMK A01 T00431083  RH  040%=      5-min Rain = 0
KFAS 081255Z 19004KT 04/M08 A3014 RMK A01 T00431080  RH  040%=      5-min Rain = 0
KFAS 081300Z 21004KT 04/M08 A3014 RMK A01 T00421080  RH  040%=      5-min Rain = 0
KFAS 081305Z 22004KT 04/M08 A3014 RMK A01 T00421079  RH  041%=      5-min Rain = 0
KFAS 081310Z 21004KT 04/M08 A3014 RMK A01 T00431079  RH  041%=      5-min Rain = 0
KFAS 081315Z 23002KT 04/M08 A3014 RMK A01 T00431079  RH  041%=      5-min Rain = 0
KFAS 081320Z 19001KT 04/M08 A3013 RMK A01 T00421078  RH  041%=      5-min Rain = 0
KFAS 081325Z 32001KT 04/M08 A3014 RMK A01 T00421079  RH  041%=      5-min Rain = 0
KFAS 081330Z 11001KT 04/M08 A3013 RMK A01 T00431079  RH  041%=      5-min Rain = 0
KFAS 081335Z 17001KT 04/M08 A3013 RMK A01 T00431081  RH  040%=      5-min Rain = 0
KFAS 081340Z 19002KT 04/M08 A3014 RMK A01 T00431082  RH  040%=      5-min Rain = 0
KFAS 081345Z 19003KT 04/M08 A3013 RMK A01 T00431079  RH  040%=      5-min Rain = 0
KFAS 081350Z 18005KT 04/M08 A3013 RMK A01 T00421077  RH  042%=      5-min Rain = 0
KFAS 081355Z 17006KT 04/M08 A3013 RMK A01 T00421076  RH  042%=      5-min Rain = 0
KFAS 081400Z 19006KT 04/M08 A3013 RMK A01 T00441076  RH  041%=      5-min Rain = 0
KFAS 081405Z 19006KT 05/M07 A3014 RMK A01 T00451074  RH  042%=      5-min Rain = 0
KFAS 081410Z 20005KT 05/M07 A3014 RMK A01 T00461071  RH  042%=      5-min Rain = 0
KFAS 081415Z 19004KT 05/M07 A3014 RMK A01 T00471073  RH  042%=      5-min Rain = 0
KFAS 081420Z 18005KT 05/M08 A3013 RMK A01 T00491075  RH  040%=      5-min Rain = 0
KFAS 081425Z 17006KT 05/M07 A3013 RMK A01 T00511074  RH  040%=      5-min Rain = 0
KFAS 081430Z 17005KT 05/M07 A3013 RMK A01 T00531074  RH  039%=      5-min Rain = 0
KFAS 081435Z 16006KT 05/M07 A3013 RMK A01 T00531074  RH  039%=      5-min Rain = 0
KFAS 081440Z 17006KT 05/M07 A3013 RMK A01 T00541073  RH  039%=      5-min Rain = 0
KFAS 081445Z 17008KT 06/M08 A3013 RMK A01 T00561075  RH  038%=      5-min Rain = 0
KFAS 081450Z 18008KT 06/M08 A3013 RMK A01 T00571077  RH  038%=      5-min Rain = 0
KFAS 081455Z 18009KT 06/M08 A3013 RMK A01 T00581075  RH  038%=      5-min Rain = 0
KFAS 081500Z 18009KT 06/M07 A3013 RMK A01 T00601073  RH  038%=      5-min Rain = 0
KFAS 081505Z 18009KT 06/M07 A3013 RMK A01 T00631074  RH  037%=      5-min Rain = 0
KFAS 081510Z 19009KT 07/M08 A3013 RMK A01 T00651075  RH  036%=      5-min Rain = 0
KFAS 081515Z 19009KT 07/M08 A3013 RMK A01 T00661075  RH  036%=      5-min Rain = 0
KFAS 081520Z 20010KT 07/M08 A3013 RMK A01 T00681075  RH  035%=      5-min Rain = 0
KFAS 081525Z 20012KT 07/M08 A3013 RMK A01 T00721075  RH  034%=      5-min Rain = 0
KFAS 081530Z 20012KT 07/M08 A3013 RMK A01 T00741076  RH  034%=      5-min Rain = 0
KFAS 081535Z 20014KT 08/M08 A3013 RMK A01 T00761076  RH  033%=      5-min Rain = 0
KFAS 081540Z 20013KT 08/M08 A3013 RMK A01 T00781075  RH  033%=      5-min Rain = 0
KFAS 081545Z 20012KT 08/M07 A3012 RMK A01 T00801073  RH  033%=      5-min Rain = 0
KFAS 081550Z 21015KT 08/M08 A3012 RMK A01 T00831075  RH  032%=      5-min Rain = 0
KFAS 081555Z 21015KT 08/M08 A3012 RMK A01 T00831075  RH  032%=      5-min Rain = 0
KFAS 081600Z 21016KT 09/M08 A3012 RMK A01 T00851076  RH  031%=      5-min Rain = 0
KFAS 081605Z 21017KT 09/M08 A3012 RMK A01 T00861076  RH  031%=      5-min Rain = 0
KFAS 081610Z 21017KT 09/M07 A3011 RMK A01 T00871074  RH  031%=      5-min Rain = 0
KFAS 081615Z 21018G23KT 09/M07 A3011 RMK A01 T00891073  RH  031%=      5-min Rain = 0
KFAS 081620Z 20018KT 09/M07 A3011 RMK A01 T00921073  RH  031%=      5-min Rain = 0
KFAS 081625Z 21019KT 10/M07 A301 RMK A01 T00961071  RH  030%=      5-min Rain = 0
KFAS 081630Z 20019KT 10/M07 A3011 RMK A01 T00981072  RH  029%=      5-min Rain = 0
KFAS 081635Z 21017G22KT 10/M07 A3011 RMK A01 T01021069  RH  029%=      5-min Rain = 0
KFAS 081640Z 21016KT 10/M07 A3011 RMK A01 T01021068  RH  029%=      5-min Rain = 0
KFAS 081645Z 21015KT 10/M07 A3011 RMK A01 T01041068  RH  029%=      5-min Rain = 0
KFAS 081650Z 21014G19KT 11/M07 A3011 RMK A01 T01071067  RH  029%=      5-min Rain = 0
KFAS 081655Z 21014KT 11/M07 A3011 RMK A01 T01091067  RH  028%=      5-min Rain = 0
KFAS 081700Z 21015KT 11/M07 A301 RMK A01 T01111067  RH  028%=      5-min Rain = 0
KFAS 081705Z 21015KT 11/M07 A301 RMK A01 T01121067  RH  028%=      5-min Rain = 0
KFAS 081710Z 20014KT 12/M06 A301 RMK A01 T01171064  RH  028%=      5-min Rain = 0
KFAS 081715Z 21013KT 13/M06 A3009 RMK A01 T01251061  RH  027%=      5-min Rain = 0
KFAS 081720Z 20014KT 13/M06 A3009 RMK A01 T01311062  RH  026%=      5-min Rain = 0
KFAS 081725Z 21016KT 13/M06 A3009 RMK A01 T01291062  RH  026%=      5-min Rain = 0
KFAS 081730Z 20016KT 13/M06 A3008 RMK A01 T01281062  RH  026%=      5-min Rain = 0
KFAS 081735Z 20015KT 14/M06 A3008 RMK A01 T01361059  RH  025%=      5-min Rain = 0
KFAS 081740Z 21017KT 14/M06 A3007 RMK A01 T01381059  RH  025%=      5-min Rain = 0
KFAS 081745Z 21016KT 14/M06 A3007 RMK A01 T01411058  RH  025%=      5-min Rain = 0
KFAS 081750Z 21016KT 15/M06 A3007 RMK A01 T01481056  RH  024%=      5-min Rain = 0
KFAS 081755Z 20019G25KT 15/M06 A3007 RMK A01 T01531055  RH  023%=      5-min Rain = 0
KFAS 081800Z 21018KT 16/M05 A3006 RMK A01 T01601054  RH  023%=      5-min Rain = 0
KFAS 081805Z 20018KT 16/M06 A3006 RMK A01 T01631056  RH  022%=      5-min Rain = 0
KFAS 081810Z 21018G23KT 17/M06 A3006 RMK A01 T01651056  RH  022%=      5-min Rain = 0
KFAS 081815Z 21019KT 17/M06 A3006 RMK A01 T01671055  RH  021%=      5-min Rain = 0
KFAS 081820Z 21020KT 17/M06 A3006 RMK A01 T01671056  RH  021%=      5-min Rain = 0
KFAS 081825Z 21020G25KT 17/M05 A3005 RMK A01 T01681054  RH  021%=      5-min Rain = 0
KFAS 081830Z 21019KT 17/M05 A3005 RMK A01 T01701054  RH  021%=      5-min Rain = 0
KFAS 081835Z 20020G25KT 18/M06 A3005 RMK A01 T01761055  RH  020%=      5-min Rain = 0
KFAS 081840Z 20018G23KT 18/M06 A3004 RMK A01 T01761056  RH  020%=      5-min Rain = 0
KFAS 081845Z 21017G22KT 18/M06 A3004 RMK A01 T01831059  RH  019%=      5-min Rain = 0
KFAS 081850Z 21016G22KT 18/M06 A3004 RMK A01 T01841059  RH  019%=      5-min Rain = 0
KFAS 081855Z 21018G24KT 18/M06 A3003 RMK A01 T01811062  RH  019%=      5-min Rain = 0
KFAS 081900Z 21017KT 18/M06 A3003 RMK A01 T01841058  RH  019%=      5-min Rain = 0
KFAS 081905Z 20018G25KT 19/M06 A3002 RMK A01 T01851063  RH  018%=      5-min Rain = 0
KFAS 081910Z 20017G24KT 18/M07 A3002 RMK A01 T01841065  RH  018%=      5-min Rain = 0
KFAS 081915Z 20019KT 19/M07 A3001 RMK A01 T01901067  RH  017%=      5-min Rain = 0
KFAS 081920Z 20015G20KT 19/M07 A3001 RMK A01 T01911065  RH  017%=      5-min Rain = 0
KFAS 081925Z 21015G21KT 20/M07 A30 RMK A01 T01971069  RH  016%=      5-min Rain = 0
KFAS 081930Z 21015KT 20/M07 A30 RMK A01 T01981073  RH  015%=      5-min Rain = 0
KFAS 081935Z 22014G20KT 20/M07 A2999 RMK A01 T02001073  RH  015%=      5-min Rain = 0
KFAS 081940Z 22015G22KT 20/M08 A2999 RMK A01 T02011079  RH  014%=      5-min Rain = 0
KFAS 081945Z 21017G22KT 20/M09 A2999 RMK A01 T02031085  RH  013%=      5-min Rain = 0
KFAS 081950Z 21017G25KT 20/M09 A2998 RMK A01 T02001087  RH  014%=      5-min Rain = 0
KFAS 081955Z 22019G25KT 20/M09 A2998 RMK A01 T02021086  RH  013%=      5-min Rain = 0
KFAS 082000Z 22016G24KT 20/M09 A2998 RMK A01 T02011088  RH  013%=      5-min Rain = 0
KFAS 082005Z 22014G20KT 20/M09 A2997 RMK A01 T02021085  RH  014%=      5-min Rain = 0
KFAS 082010Z 23018G24KT 21/M08 A2997 RMK A01 T02061084  RH  013%=      5-min Rain = 0
KFAS 082015Z 22017G23KT 20/M08 A2996 RMK A01 T02041084  RH  013%=      5-min Rain = 0
KFAS 082020Z 21013G18KT 21/M08 A2996 RMK A01 T02071083  RH  013%=      5-min Rain = 0
KFAS 082025Z 22017G23KT 21/M08 A2995 RMK A01 T02121082  RH  013%=      5-min Rain = 0
KFAS 082030Z 24015G20KT 22/M09 A2995 RMK A01 T02161089  RH  012%=      5-min Rain = 0
KFAS 082035Z 23015G21KT 21/M09 A2994 RMK A01 T02141093  RH  012%=      5-min Rain = 0
KFAS 082040Z 22016G21KT 22/M09 A2994 RMK A01 T02161092  RH  012%=      5-min Rain = 0
KFAS 082045Z 23012G19KT 22/M10 A2994 RMK A01 T02171098  RH  011%=      5-min Rain = 0
KFAS 082050Z 22014G19KT 22/M10 A2994 RMK A01 T02201096  RH  011%=      5-min Rain = 0
KFAS 082055Z 25015G22KT 22/M10 A2993 RMK A01 T02191099  RH  011%=      5-min Rain = 0
KFAS 082100Z 24016G22KT 22/M10 A2993 RMK A01 T02231099  RH  011%=      5-min Rain = 0
KFAS 082105Z 23018G23KT 22/M10 A2993 RMK A01 T02221101  RH  011%=      5-min Rain = 0
KFAS 082110Z 25018G23KT 22/M11 A2993 RMK A01 T02201106  RH  010%=      5-min Rain = 0
KFAS 082115Z 24015G22KT 22/M11 A2992 RMK A01 T02201106  RH  010%=      5-min Rain = 0
KFAS 082120Z 24018G25KT 22/M11 A2992 RMK A01 T02221107  RH  010%=      5-min Rain = 0
KFAS 082125Z 25015G23KT 22/M11 A2992 RMK A01 T02221108  RH  010%=      5-min Rain = 0
KFAS 082130Z 27017G22KT 22/M11 A2992 RMK A01 T02211108  RH  010%=      5-min Rain = 0
KFAS 082135Z 27012G18KT 22/M11 A2992 RMK A01 T02201109  RH  010%=      5-min Rain = 0
KFAS 082140Z 27013G20KT 22/M11 A2991 RMK A01 T02221108  RH  010%=      5-min Rain = 0
KFAS 082145Z 25019G26KT 22/M11 A2991 RMK A01 T02241108  RH  010%=      5-min Rain = 0
KFAS 082150Z 25016G21KT 22/M11 A2991 RMK A01 T02221110  RH  010%=      5-min Rain = 0
KFAS 082155Z 25016G21KT 22/M11 A2991 RMK A01 T02211111  RH  010%=      5-min Rain = 0
KFAS 082200Z 24014G20KT 22/M11 A299 RMK A01 T02231111  RH  010%=      5-min Rain = 0
KFAS 082205Z 26016G22KT 23/M11 A299 RMK A01 T02271110  RH  010%=      5-min Rain = 0
KFAS 082210Z 25013KT 22/M12 A299 RMK A01 T02231115  RH  009%=      5-min Rain = 0
KFAS 082215Z 29017G23KT 22/M12 A299 RMK A01 T02221115  RH  009%=      5-min Rain = 0
KFAS 082220Z 28020KT 22/M12 A299 RMK A01 T02211117  RH  009%=      5-min Rain = 0
KFAS 082225Z 28013G19KT 22/M12 A299 RMK A01 T02201118  RH  009%=      5-min Rain = 0
KFAS 082230Z 28013G18KT 22/M12 A299 RMK A01 T02221117  RH  009%=      5-min Rain = 0
KFAS 082235Z 27016G23KT 22/M12 A299 RMK A01 T02221117  RH  009%=      5-min Rain = 0
KFAS 082240Z 28012KT 22/M12 A299 RMK A01 T02201119  RH  009%=      5-min Rain = 0
KFAS 082245Z 27014G20KT 22/M12 A299 RMK A01 T02211118  RH  009%=      5-min Rain = 0
KFAS 082250Z 28014G21KT 22/M12 A299 RMK A01 T02201119  RH  009%=      5-min Rain = 0
KFAS 082255Z 27013KT 22/M12 A2989 RMK A01 T02191120  RH  009%=      5-min Rain = 0
KFAS 082300Z 29015G20KT 22/M12 A2989 RMK A01 T02171120  RH  009%=      5-min Rain = 0
KFAS 082305Z 28010KT 22/M12 A2989 RMK A01 T02171119  RH  009%=      5-min Rain = 0
KFAS 082310Z 27010G15KT 22/M12 A2989 RMK A01 T02191119  RH  009%=      5-min Rain = 0
KFAS 082315Z 24011KT 22/M12 A2989 RMK A01 T02181115  RH  010%=      5-min Rain = 0
KFAS 082320Z 25017G22KT 22/M12 A299 RMK A01 T02171117  RH  010%=      5-min Rain = 0
KFAS 082325Z 26017G22KT 22/M12 A2989 RMK A01 T02151116  RH  010%=      5-min Rain = 0
KFAS 082330Z 25018KT 22/M12 A2989 RMK A01 T02151116  RH  010%=      5-min Rain = 0
KFAS 082335Z 25016KT 21/M12 A299 RMK A01 T02131115  RH  010%=      5-min Rain = 0
KFAS 082340Z 25017KT 21/M12 A299 RMK A01 T02121115  RH  010%=      5-min Rain = 0
KFAS 082345Z 25014KT 21/M12 A299 RMK A01 T02081117  RH  010%=      5-min Rain = 0
KFAS 082350Z 24012KT 21/M11 A299 RMK A01 T02061113  RH  011%=      5-min Rain = 0
KFAS 082355Z 25011KT 21/M11 A299 RMK A01 T02061110  RH  011%=      5-min Rain = 0
KFAS 090000Z 25012KT 20/M11 A299 RMK A01 T02011110  RH  011%=      5-min Rain = 0
KFAS 090005Z 25012KT 20/M11 A299 RMK A01 T01981108  RH  012%=      5-min Rain = 0
KFAS 090010Z 25011KT 20/M11 A299 RMK A01 T01971108  RH  012%=      5-min Rain = 0
KFAS 090015Z 24012KT 19/M11 A299 RMK A01 T01941108  RH  012%=      5-min Rain = 0
KFAS 090020Z 24011KT 19/M11 A299 RMK A01 T01911108  RH  012%=      5-min Rain = 0
KFAS 090025Z 24011KT 19/M11 A299 RMK A01 T01871107  RH  012%=      5-min Rain = 0
KFAS 090030Z 24009KT 19/M11 A299 RMK A01 T01851106  RH  013%=      5-min Rain = 0
KFAS 090035Z 24009KT 18/M10 A2991 RMK A01 T01811104  RH  013%=      5-min Rain = 0
KFAS 090040Z 23008KT 17/M11 A2991 RMK A01 T01741105  RH  014%=      5-min Rain = 0
KFAS 090045Z 23008KT 17/M10 A299 RMK A01 T01651098  RH  015%=      5-min Rain = 0
KFAS 090050Z 23008KT 15/M09 A2991 RMK A01 T01531091  RH  018%=      5-min Rain = 0
KFAS 090055Z 23008KT 14/M09 A2991 RMK A01 T01431093  RH  018%=      5-min Rain = 0
KFAS 090100Z 22008KT 14/M09 A2991 RMK A01 T01381090  RH  020%=      5-min Rain = 0
KFAS 090105Z 23008KT 13/M08 A2991 RMK A01 T01341083  RH  021%=      5-min Rain = 0
KFAS 090110Z 23007KT 14/M08 A2991 RMK A01 T01371082  RH  021%=      5-min Rain = 0
KFAS 090115Z 23007KT 14/M08 A2991 RMK A01 T01371079  RH  021%=      5-min Rain = 0
KFAS 090120Z 22006KT 14/M08 A2991 RMK A01 T01401078  RH  021%=      5-min Rain = 0
KFAS 090125Z 22006KT 14/M07 A2991 RMK A01 T01351073  RH  023%=      5-min Rain = 0
KFAS 090130Z 22006KT 14/M08 A2991 RMK A01 T01391079  RH  021%=      5-min Rain = 0
KFAS 090135Z 21006KT 14/M10 A2991 RMK A01 T01431096  RH  018%=      5-min Rain = 0
KFAS 090140Z 21006KT 13/M10 A2991 RMK A01 T01341097  RH  019%=      5-min Rain = 0
KFAS 090145Z 21006KT 13/M10 A2991 RMK A01 T01261098  RH  020%=      5-min Rain = 0
KFAS 090150Z 21007KT 12/M10 A2991 RMK A01 T01221100  RH  020%=      5-min Rain = 0
KFAS 090155Z 20007KT 12/M10 A2991 RMK A01 T01211097  RH  021%=      5-min Rain = 0
KFAS 090200Z 20007KT 12/M10 A2991 RMK A01 T01161098  RH  021%=      5-min Rain = 0
KFAS 090205Z 20008KT 12/M10 A2991 RMK A01 T01171100  RH  021%=      5-min Rain = 0
KFAS 090210Z 20008KT 12/M10 A2991 RMK A01 T01151100  RH  021%=      5-min Rain = 0
KFAS 090215Z 20009KT 11/M10 A2991 RMK A01 T01051098  RH  023%=      5-min Rain = 0
KFAS 090220Z 20009KT 10/M10 A2991 RMK A01 T01031097  RH  023%=      5-min Rain = 0
KFAS 090225Z 20009KT 10/M10 A2991 RMK A01 T00971097  RH  024%=      5-min Rain = 0
KFAS 090230Z 20009KT 09/M10 A2991 RMK A01 T00941098  RH  025%=      5-min Rain = 0
KFAS 090235Z 20009KT 09/M10 A2991 RMK A01 T00931097  RH  025%=      5-min Rain = 0
KFAS 090240Z 20010KT 09/M10 A2991 RMK A01 T00921096  RH  025%=      5-min Rain = 0
KFAS 090245Z 20010KT 10/M10 A2991 RMK A01 T00951097  RH  025%=      5-min Rain = 0
KFAS 090250Z 20010KT 09/M10 A2991 RMK A01 T00931097  RH  025%=      5-min Rain = 0
KFAS 090255Z 20010KT 09/M10 A2991 RMK A01 T00871096  RH  026%=      5-min Rain = 0
KFAS 090300Z 20010KT 08/M09 A2991 RMK A01 T00821093  RH  028%=      5-min Rain = 0
KFAS 090305Z 20010KT 08/M09 A2991 RMK A01 T00841092  RH  028%=      5-min Rain = 0
KFAS 090310Z 20010KT 09/M09 A2991 RMK A01 T00861094  RH  027%=      5-min Rain = 0
KFAS 090315Z 20010KT 09/M09 A2991 RMK A01 T00851093  RH  027%=      5-min Rain = 0
KFAS 090320Z 20010KT 08/M09 A299 RMK A01 T00841094  RH  027%=      5-min Rain = 0
KFAS 090325Z 20010KT 09/M10 A299 RMK A01 T00861096  RH  026%=      5-min Rain = 0
KFAS 090330Z 20010KT 09/M10 A299 RMK A01 T00851096  RH  027%=      5-min Rain = 0
KFAS 090335Z 21010KT 09/M10 A299 RMK A01 T00851096  RH  027%=      5-min Rain = 0
KFAS 090340Z 21011KT 08/M10 A299 RMK A01 T00821096  RH  027%=      5-min Rain = 0
KFAS 090345Z 21011KT 09/M10 A299 RMK A01 T00861095  RH  027%=      5-min Rain = 0
KFAS 090350Z 21010KT 09/M09 A299 RMK A01 T00881094  RH  026%=      5-min Rain = 0
KFAS 090355Z 21011KT 09/M09 A299 RMK A01 T00861092  RH  027%=      5-min Rain = 0
KFAS 090400Z 21012KT 09/M09 A299 RMK A01 T00851092  RH  027%=      5-min Rain = 0
KFAS 090405Z 20011KT 09/M09 A299 RMK A01 T00851094  RH  027%=      5-min Rain = 0
KFAS 090410Z 20011KT 08/M09 A2989 RMK A01 T00831093  RH  028%=      5-min Rain = 0
KFAS 090415Z 20012KT 08/M10 A2989 RMK A01 T00801095  RH  028%=      5-min Rain = 0
KFAS 090420Z 20013KT 08/M09 A2989 RMK A01 T00791094  RH  028%=      5-min Rain = 0
KFAS 090425Z 20013KT 08/M09 A2989 RMK A01 T00801092  RH  029%=      5-min Rain = 0
KFAS 090430Z 20012KT 08/M09 A2989 RMK A01 T00781092  RH  029%=      5-min Rain = 0
KFAS 090435Z 21012KT 08/M10 A2989 RMK A01 T00751095  RH  029%=      5-min Rain = 0
KFAS 090440Z 20013KT 08/M10 A2988 RMK A01 T00801097  RH  027%=      5-min Rain = 0
KFAS 090445Z 21014KT 09/M10 A2988 RMK A01 T00901099  RH  025%=      5-min Rain = 0
KFAS 090450Z 21013KT 09/M10 A2988 RMK A01 T00931099  RH  025%=      5-min Rain = 0
KFAS 090455Z 21014KT 10/M10 A2988 RMK A01 T00951101  RH  024%=      5-min Rain = 0
KFAS 090500Z 21014KT 10/M10 A2988 RMK A01 T00981101  RH  023%=      5-min Rain = 0
KFAS 090505Z 21014KT 10/M10 A2988 RMK A01 T00991102  RH  023%=      5-min Rain = 0
KFAS 090510Z 21014KT 10/M10 A2988 RMK A01 T01001104  RH  023%=      5-min Rain = 0
KFAS 090515Z 21014KT 10/M11 A2988 RMK A01 T00991105  RH  022%=      5-min Rain = 0
KFAS 090520Z 21015KT 10/M10 A2987 RMK A01 T01011104  RH  022%=      5-min Rain = 0
KFAS 090525Z 21015KT 10/M10 A2987 RMK A01 T01011104  RH  022%=      5-min Rain = 0
KFAS 090530Z 22015KT 10/M10 A2987 RMK A01 T01011103  RH  023%=      5-min Rain = 0
KFAS 090535Z 22014KT 10/M10 A2987 RMK A01 T01021100  RH  023%=      5-min Rain = 0
KFAS 090540Z 22014G19KT 10/M10 A2987 RMK A01 T01001098  RH  024%=      5-min Rain = 0
KFAS 090545Z 22014KT 10/M10 A2987 RMK A01 T01031096  RH  023%=      5-min Rain = 0
KFAS 090550Z 22015KT 11/M09 A2986 RMK A01 T01071094  RH  023%=      5-min Rain = 0
KFAS 090555Z 22016KT 12/M09 A2986 RMK A01 T01201092  RH  022%=      5-min Rain = 0

Page generated in 0.009 seconds.